Time;durP1;ratioP1;P1;durP2;ratioP2;P2;SDS_P1;SDS_P2;PMS_P1;PMS_P2;Temp;Humidity;BMP_temperature;BMP_pressure;BME280_temperature;BME280_humidity;BME280_pressure;Samples;Min_cycle;Max_cycle;Signal;HPM_P1;HPM_P2
2022/10/07 00:02:10;;;;;;;13.48;2.50;;;10.10;99.90;;;;;;4988391;28;228784;-70
2022/10/07 00:04:38;;;;;;;15.68;2.50;;;10.10;99.90;;;;;;5006937;28;20385;-70
2022/10/07 00:07:04;;;;;;;15.35;2.33;;;10.10;99.90;;;;;;4974528;28;209673;-69
2022/10/07 00:09:30;;;;;;;14.23;2.35;;;10.10;99.90;;;;;;5019095;28;20061;-70
2022/10/07 00:11:56;;;;;;;11.68;2.30;;;10.00;99.90;;;;;;4985704;28;210748;-71
2022/10/07 00:14:22;;;;;;;17.77;2.65;;;10.00;99.90;;;;;;5025853;28;20057;-69
2022/10/07 00:16:48;;;;;;;14.80;2.40;;;10.00;99.90;;;;;;4973188;28;220237;-70
2022/10/07 00:19:14;;;;;;;12.82;2.58;;;10.00;99.90;;;;;;5024370;28;20044;-69
2022/10/07 00:21:40;;;;;;;11.00;2.60;;;9.90;99.90;;;;;;4984351;28;244386;-70
2022/10/07 00:24:07;;;;;;;13.32;2.38;;;9.90;99.90;;;;;;5028009;28;20072;-69
2022/10/07 00:26:35;;;;;;;14.77;2.60;;;9.80;99.90;;;;;;4978342;28;214036;-69
2022/10/07 00:29:03;;;;;;;14.65;2.58;;;9.80;99.90;;;;;;5028579;28;20065;-70
2022/10/07 00:31:31;;;;;;;15.07;2.53;;;9.80;99.90;;;;;;4986118;28;208820;-70
2022/10/07 00:33:58;;;;;;;16.83;2.72;;;9.70;99.90;;;;;;5020550;28;20487;-70
2022/10/07 00:36:28;;;;;;;15.35;2.47;;;9.70;99.90;;;;;;4979001;28;219414;-71
2022/10/07 00:39:14;;;;;;;14.18;3.00;;;9.70;99.90;;;;;;5034759;28;20487;-70
2022/10/07 00:41:50;;;;;;;18.95;2.80;;;9.70;99.90;;;;;;4972323;28;226751;-70
2022/10/07 00:44:32;;;;;;;16.00;2.95;;;9.60;99.90;;;;;;5025134;28;20057;-71
2022/10/07 00:47:02;;;;;;;15.32;2.78;;;9.60;99.90;;;;;;4988862;28;229185;-70
2022/10/07 00:49:33;;;;;;;15.02;3.00;;;9.60;99.90;;;;;;5019549;28;20058;-70
2022/10/07 00:52:00;;;;;;;15.40;3.17;;;9.60;99.90;;;;;;4979844;28;214981;-69
2022/10/07 00:54:26;;;;;;;15.88;2.90;;;9.60;99.90;;;;;;5021252;28;20064;-70
2022/10/07 00:56:52;;;;;;;14.90;3.05;;;9.60;99.90;;;;;;4982951;28;206448;-70
2022/10/07 00:59:20;;;;;;;15.10;3.13;;;9.60;99.90;;;;;;5024180;28;20042;-70
2022/10/07 01:01:46;;;;;;;14.27;3.20;;;9.50;99.90;;;;;;4983716;28;217789;-72
2022/10/07 01:04:13;;;;;;;16.67;3.72;;;9.50;99.90;;;;;;5028865;28;20046;-70
2022/10/07 01:06:40;;;;;;;13.38;3.33;;;9.50;99.90;;;;;;4984179;28;227056;-70
2022/10/07 01:09:08;;;;;;;12.80;3.28;;;9.50;99.90;;;;;;5024689;28;20073;-70
2022/10/07 01:11:51;;;;;;;17.33;3.28;;;9.50;99.90;;;;;;4984658;28;188855;-70
2022/10/07 01:14:59;;;;;;;13.13;3.20;;;9.40;99.90;;;;;;5026453;28;20041;-70
2022/10/07 01:17:52;;;;;;;15.70;3.47;;;9.40;99.90;;;;;;4963370;28;219611;-71
2022/10/07 01:20:53;;;;;;;14.87;2.90;;;9.40;99.90;;;;;;4979138;28;217269;-69
2022/10/07 01:24:09;;;;;;;12.73;2.88;;;9.40;99.90;;;;;;4967886;28;20061;-70
2022/10/07 01:26:42;;;;;;;18.42;3.25;;;9.40;99.90;;;;;;4864733;29;205630;-70
2022/10/07 01:29:20;;;;;;;13.38;2.95;;;9.40;99.90;;;;;;4905176;29;20063;-70
2022/10/07 01:32:03;;;;;;;12.30;2.85;;;9.30;99.90;;;;;;4872962;29;213176;-70
2022/10/07 01:34:32;;;;;;;13.27;3.30;;;9.30;99.90;;;;;;4927429;29;20055;-69
2022/10/07 01:37:00;;;;;;;17.77;3.33;;;9.30;99.90;;;;;;4857936;29;234776;-69
2022/10/07 01:39:39;;;;;;;15.40;3.40;;;9.30;99.90;;;;;;4920384;29;20665;-70
2022/10/07 01:42:06;;;;;;;12.82;2.85;;;9.30;99.90;;;;;;4861888;29;218047;-70
2022/10/07 01:44:32;;;;;;;13.70;3.17;;;9.30;99.90;;;;;;4909016;29;20532;-70
2022/10/07 01:47:01;;;;;;;16.02;3.20;;;9.30;99.90;;;;;;4866056;29;208430;-70
2022/10/07 01:49:28;;;;;;;15.32;3.60;;;9.30;99.90;;;;;;4906542;29;20473;-69
2022/10/07 01:52:13;;;;;;;16.13;3.45;;;9.30;99.90;;;;;;4846441;29;212673;-70
2022/10/07 01:55:15;;;;;;;16.50;3.78;;;9.30;99.90;;;;;;4922826;29;20539;-70
2022/10/07 01:57:56;;;;;;;14.82;3.40;;;9.30;99.90;;;;;;4874249;29;215205;-69
2022/10/07 02:00:22;;;;;;;19.23;3.30;;;9.20;99.90;;;;;;4914712;28;196185;-70
2022/10/07 02:03:21;;;;;;;21.98;3.85;;;9.20;99.90;;;;;;5011435;28;20064;-70
2022/10/07 02:06:08;;;;;;;17.58;4.03;;;9.20;99.90;;;;;;4969408;28;220841;-70
2022/10/07 02:08:45;;;;;;;16.95;3.63;;;9.10;99.90;;;;;;5023609;28;20069;-71
2022/10/07 02:11:12;;;;;;;17.60;4.07;;;9.10;99.90;;;;;;4967999;28;209348;-70
2022/10/07 02:14:15;;;;;;;17.13;3.83;;;9.20;99.90;;;;;;4995581;28;20061;-70
2022/10/07 02:16:48;;;;;;;13.35;3.50;;;9.10;99.90;;;;;;4980252;28;216540;-70
2022/10/07 02:19:27;;;;;;;14.85;3.65;;;9.10;99.90;;;;;;5028353;28;20045;-69
2022/10/07 02:21:56;;;;;;;15.95;3.85;;;9.10;99.90;;;;;;4971969;28;227962;-70
2022/10/07 02:24:26;;;;;;;15.45;4.03;;;9.10;99.90;;;;;;5024280;28;20064;-71
2022/10/07 02:26:55;;;;;;;13.80;3.78;;;9.10;99.90;;;;;;4983625;28;215379;-70
2022/10/07 02:29:24;;;;;;;17.10;4.38;;;9.10;99.90;;;;;;5004952;28;20144;-70
2022/10/07 02:31:52;;;;;;;18.83;3.92;;;9.10;99.90;;;;;;4971719;28;209642;-69
2022/10/07 02:34:21;;;;;;;16.23;3.70;;;9.10;99.90;;;;;;5000967;28;20430;-70
2022/10/07 02:36:54;;;;;;;17.85;4.00;;;9.00;99.90;;;;;;4980328;28;210028;-71
2022/10/07 02:39:20;;;;;;;19.95;4.03;;;9.00;99.90;;;;;;5027140;28;20065;-70
2022/10/07 02:41:57;;;;;;;18.42;4.18;;;9.10;99.90;;;;;;4975347;28;217917;-70
2022/10/07 02:44:24;;;;;;;15.73;3.90;;;9.00;99.90;;;;;;5021058;28;20060;-69
2022/10/07 02:47:08;;;;;;;19.50;4.10;;;9.10;99.90;;;;;;4986505;28;209762;-70
2022/10/07 02:49:38;;;;;;;19.05;3.95;;;9.00;99.90;;;;;;5027053;28;20057;-71
2022/10/07 02:52:08;;;;;;;20.48;4.63;;;9.00;99.90;;;;;;4959326;28;198187;-70
2022/10/07 02:54:41;;;;;;;17.67;3.88;;;9.00;99.90;;;;;;5020675;28;20057;-72
2022/10/07 02:57:09;;;;;;;18.30;3.70;;;8.90;99.90;;;;;;4963292;28;217928;-71
2022/10/07 02:59:37;;;;;;;20.77;3.80;;;8.90;99.90;;;;;;5023469;28;20623;-71
2022/10/07 03:02:09;;;;;;;19.27;4.03;;;8.90;99.90;;;;;;4997859;28;212603;-70
2022/10/07 03:04:36;;;;;;;14.18;3.78;;;8.90;99.90;;;;;;5026354;28;20061;-70
2022/10/07 03:07:03;;;;;;;14.93;3.80;;;8.90;99.90;;;;;;4989559;28;210613;-71
2022/10/07 03:09:32;;;;;;;19.67;4.45;;;8.90;99.90;;;;;;5014217;28;20045;-70
2022/10/07 03:11:59;;;;;;;21.38;4.43;;;8.90;99.90;;;;;;4936249;28;211314;-71
2022/10/07 03:14:25;;;;;;;19.25;3.88;;;8.90;99.90;;;;;;5025449;28;20113;-69
2022/10/07 03:16:52;;;;;;;19.23;4.03;;;8.90;99.90;;;;;;4981814;28;214288;-70
2022/10/07 03:19:18;;;;;;;17.13;4.53;;;8.90;99.90;;;;;;5025884;28;20057;-70
2022/10/07 03:21:44;;;;;;;17.95;4.25;;;8.90;99.90;;;;;;4989432;28;212757;-69
2022/10/07 03:24:10;;;;;;;20.02;4.57;;;8.90;99.90;;;;;;5027679;28;20068;-70
2022/10/07 03:26:36;;;;;;;19.08;4.40;;;8.90;99.90;;;;;;4975790;28;202079;-71
2022/10/07 03:29:04;;;;;;;18.58;4.22;;;8.90;99.90;;;;;;5031831;28;20057;-71
2022/10/07 03:31:30;;;;;;;19.98;4.38;;;8.90;99.90;;;;;;4989846;28;219195;-70
2022/10/07 03:33:56;;;;;;;17.88;4.30;;;8.90;99.90;;;;;;5026906;28;20068;-69
2022/10/07 03:36:23;;;;;;;17.83;4.28;;;8.90;99.90;;;;;;4969120;28;208833;-70
2022/10/07 03:38:50;;;;;;;17.55;4.28;;;8.90;99.90;;;;;;5024086;28;20068;-70
2022/10/07 03:41:19;;;;;;;18.30;4.60;;;8.80;99.90;;;;;;4981850;28;221921;-70
2022/10/07 03:43:45;;;;;;;15.63;4.50;;;8.90;99.90;;;;;;5025962;28;20387;-70
2022/10/07 03:46:12;;;;;;;17.80;4.38;;;8.80;99.90;;;;;;4979775;28;215211;-69
2022/10/07 03:48:39;;;;;;;18.95;4.88;;;8.80;99.90;;;;;;5017437;28;20410;-70
2022/10/07 03:51:05;;;;;;;21.00;4.72;;;8.90;99.90;;;;;;4979753;28;209881;-70
2022/10/07 03:53:31;;;;;;;21.40;4.78;;;8.80;99.90;;;;;;5022239;28;20061;-71
2022/10/07 03:55:57;;;;;;;21.35;4.50;;;8.90;99.90;;;;;;4989720;28;219086;-70
2022/10/07 03:58:24;;;;;;;21.30;5.18;;;8.80;99.90;;;;;;5021829;28;20053;-71
2022/10/07 04:01:03;;;;;;;20.27;5.00;;;8.80;99.90;;;;;;4965957;28;209521;-70
2022/10/07 04:03:29;;;;;;;23.70;4.88;;;8.80;99.90;;;;;;5036396;28;20057;-70
2022/10/07 04:05:59;;;;;;;18.52;4.60;;;8.80;99.90;;;;;;4971497;28;231931;-70
2022/10/07 04:08:31;;;;;;;18.48;4.68;;;8.80;99.90;;;;;;5022369;28;20411;-72
2022/10/07 04:10:58;;;;;;;23.55;5.30;;;8.80;99.90;;;;;;4981882;28;206104;-70
2022/10/07 04:13:28;;;;;;;23.75;5.30;;;8.80;99.90;;;;;;5030523;28;20049;-70
2022/10/07 04:15:57;;;;;;;22.73;5.07;;;8.80;99.90;;;;;;4975695;28;229817;-69
2022/10/07 04:18:23;;;;;;;19.15;4.82;;;8.80;99.90;;;;;;5025438;28;20060;-71
2022/10/07 04:20:49;;;;;;;24.08;5.05;;;8.70;99.90;;;;;;4983896;28;212689;-71
2022/10/07 04:23:16;;;;;;;22.10;5.10;;;8.80;99.90;;;;;;5036188;28;20067;-71
2022/10/07 04:25:43;;;;;;;23.27;5.00;;;8.70;99.90;;;;;;4974378;28;223885;-71
2022/10/07 04:28:19;;;;;;;21.45;4.90;;;8.70;99.90;;;;;;5025687;28;20639;-69
2022/10/07 04:30:49;;;;;;;21.20;4.53;;;8.70;99.90;;;;;;4995068;28;218468;-71
2022/10/07 04:33:21;;;;;;;24.77;5.25;;;8.70;99.90;;;;;;5038011;28;20056;-70
2022/10/07 04:35:49;;;;;;;29.08;5.22;;;8.70;99.90;;;;;;4975979;28;224535;-71
2022/10/07 04:38:19;;;;;;;20.35;4.80;;;8.80;99.90;;;;;;5012597;28;20049;-69
2022/10/07 04:40:47;;;;;;;23.20;4.97;;;8.70;99.90;;;;;;4979556;28;214882;-71
2022/10/07 04:43:19;;;;;;;19.95;4.97;;;8.70;99.90;;;;;;5040003;28;20058;-70
2022/10/07 04:45:47;;;;;;;18.33;4.82;;;8.80;99.90;;;;;;4979221;28;244158;-70
2022/10/07 04:48:16;;;;;;;22.38;5.35;;;8.80;99.90;;;;;;5007612;28;20391;-70
2022/10/07 04:50:43;;;;;;;20.23;4.60;;;8.70;99.90;;;;;;4975285;28;235434;-70
2022/10/07 04:53:13;;;;;;;20.38;4.80;;;8.80;99.90;;;;;;5021281;28;20061;-71
2022/10/07 04:55:41;;;;;;;18.40;4.90;;;8.80;99.90;;;;;;4979531;28;211132;-70
2022/10/07 04:58:07;;;;;;;19.73;4.68;;;8.90;99.90;;;;;;5019995;28;20069;-70
2022/10/07 05:00:34;;;;;;;23.15;4.82;;;8.80;99.90;;;;;;4967270;28;216912;-71
2022/10/07 05:03:03;;;;;;;23.08;5.68;;;8.90;99.90;;;;;;5019064;28;20399;-70
2022/10/07 05:05:33;;;;;;;18.67;4.63;;;8.90;99.90;;;;;;4973883;28;247635;-70
2022/10/07 05:07:59;;;;;;;23.48;5.28;;;9.00;99.90;;;;;;5025026;28;20422;-71
2022/10/07 05:10:25;;;;;;;23.60;5.18;;;8.90;99.90;;;;;;4982452;28;241488;-70
2022/10/07 05:12:51;;;;;;;20.63;4.75;;;9.00;99.90;;;;;;5036089;28;20510;-71
2022/10/07 05:15:17;;;;;;;24.42;5.35;;;8.90;99.90;;;;;;4977585;28;222008;-69
2022/10/07 05:17:44;;;;;;;24.73;5.50;;;9.00;99.90;;;;;;5038845;28;20388;-70
2022/10/07 05:20:11;;;;;;;21.25;5.25;;;9.00;99.90;;;;;;5013777;28;21043;-70
2022/10/07 05:22:38;;;;;;;20.38;4.65;;;9.00;99.90;;;;;;4987083;28;43501;-70
2022/10/07 05:25:05;;;;;;;20.10;5.07;;;9.00;99.90;;;;;;5025832;28;20427;-71
2022/10/07 05:27:31;;;;;;;21.33;5.05;;;9.00;99.90;;;;;;4974154;28;214223;-70
2022/10/07 05:29:57;;;;;;;21.02;5.22;;;9.00;99.90;;;;;;5021800;28;20052;-72
2022/10/07 05:32:24;;;;;;;22.98;5.13;;;9.00;99.90;;;;;;4950474;28;206256;-70
2022/10/07 05:34:51;;;;;;;22.00;5.22;;;9.10;99.90;;;;;;5019143;28;22266;-71
2022/10/07 05:37:17;;;;;;;20.00;5.35;;;9.00;99.90;;;;;;4961687;28;207328;-71
2022/10/07 05:39:43;;;;;;;20.98;5.63;;;9.10;99.90;;;;;;5013425;28;20068;-70
2022/10/07 05:42:12;;;;;;;22.23;5.25;;;9.10;99.90;;;;;;4979625;28;209569;-71
2022/10/07 05:44:41;;;;;;;24.98;6.03;;;9.00;99.90;;;;;;5002104;28;20045;-71
2022/10/07 05:47:10;;;;;;;22.23;5.38;;;9.10;99.90;;;;;;4973014;28;209982;-71
2022/10/07 05:49:36;;;;;;;24.40;5.65;;;9.00;99.90;;;;;;5021984;28;20050;-71
2022/10/07 05:52:03;;;;;;;26.08;5.80;;;9.10;99.90;;;;;;4964594;28;214395;-71
2022/10/07 05:54:32;;;;;;;20.92;6.18;;;9.00;99.90;;;;;;5022790;28;20058;-71
2022/10/07 05:56:59;;;;;;;22.40;5.82;;;9.10;99.90;;;;;;4977742;28;234211;-70
2022/10/07 05:59:25;;;;;;;21.02;5.80;;;9.10;99.90;;;;;;5020157;28;20048;-67
2022/10/07 06:01:56;;;;;;;21.20;5.95;;;9.10;99.90;;;;;;4984830;28;223366;-73
2022/10/07 06:04:22;;;;;;;24.17;5.95;;;9.10;99.90;;;;;;5017955;28;20057;-73
2022/10/07 06:06:48;;;;;;;24.85;5.72;;;9.00;99.90;;;;;;4989365;28;210041;-72
2022/10/07 06:14:44;;;;;;;22.38;5.75;;;9.10;99.90;;;;;;5021848;28;20066;-72
2022/10/07 06:17:10;;;;;;;22.67;5.85;;;9.10;99.90;;;;;;4992107;28;209943;-74
2022/10/07 06:19:36;;;;;;;24.35;6.25;;;9.20;99.90;;;;;;5015873;28;20049;-74
2022/10/07 06:22:03;;;;;;;22.73;6.13;;;9.20;99.90;;;;;;4954059;28;215274;-73
2022/10/07 06:24:32;;;;;;;19.70;5.18;;;9.20;99.90;;;;;;5025243;28;20041;-71
2022/10/07 06:26:58;;;;;;;22.35;5.85;;;9.30;99.90;;;;;;4973707;28;201735;-72
2022/10/07 06:29:25;;;;;;;23.98;5.75;;;9.30;99.90;;;;;;5005756;28;20069;-72
2022/10/07 06:31:54;;;;;;;21.80;5.55;;;9.40;99.90;;;;;;4977671;28;217248;-72
2022/10/07 06:34:20;;;;;;;21.48;6.15;;;9.40;99.90;;;;;;5004184;28;20049;-72
2022/10/07 06:36:46;;;;;;;20.38;5.63;;;9.40;99.90;;;;;;4970875;28;229242;-73
2022/10/07 06:39:12;;;;;;;20.90;5.43;;;9.50;99.90;;;;;;5026924;28;20072;-72
2022/10/07 06:41:38;;;;;;;24.52;6.00;;;9.50;99.90;;;;;;4984098;28;269700;-73
2022/10/07 06:44:04;;;;;;;20.65;5.53;;;9.50;99.90;;;;;;5026615;28;20054;-72
2022/10/07 06:46:30;;;;;;;23.10;5.93;;;9.60;99.90;;;;;;4976060;28;237867;-73
2022/10/07 06:48:59;;;;;;;23.58;6.00;;;9.60;99.90;;;;;;5023560;28;20596;-72
2022/10/07 06:51:35;;;;;;;22.05;6.38;;;9.60;99.90;;;;;;4980238;28;206248;-73
2022/10/07 06:54:01;;;;;;;21.15;5.30;;;9.60;99.90;;;;;;5035885;28;20041;-74
2022/10/07 06:56:27;;;;;;;21.02;5.15;;;9.70;99.90;;;;;;4983541;28;209363;-72
2022/10/07 06:58:54;;;;;;;24.85;5.72;;;9.70;99.90;;;;;;5027318;28;20052;-73
2022/10/07 07:01:20;;;;;;;22.92;5.43;;;9.70;99.90;;;;;;4978873;28;562653;-72
2022/10/07 07:03:46;;;;;;;17.42;5.45;;;9.80;99.90;;;;;;5032001;28;20072;-72
2022/10/07 07:06:13;;;;;;;26.48;5.55;;;9.80;99.90;;;;;;4983786;28;211773;-73
2022/10/07 07:08:40;;;;;;;26.63;5.78;;;9.90;99.90;;;;;;5035859;28;20056;-73
2022/10/07 07:13:57;;;;;;;22.05;5.30;;;10.00;99.90;;;;;;5020412;28;20057;-73
2022/10/07 07:16:23;;;;;;;22.20;5.22;;;10.00;99.90;;;;;;4977667;28;241413;-74
2022/10/07 07:18:52;;;;;;;22.48;5.35;;;10.10;99.90;;;;;;5031129;28;20045;-72
2022/10/07 07:21:18;;;;;;;20.15;5.35;;;10.20;99.90;;;;;;4955017;28;206723;-72
2022/10/07 07:23:44;;;;;;;21.98;5.13;;;10.20;99.90;;;;;;5009630;28;20053;-74
2022/10/07 07:26:11;;;;;;;18.75;4.80;;;10.30;99.90;;;;;;4960566;28;236818;-72
2022/10/07 07:28:38;;;;;;;18.75;4.50;;;10.30;99.90;;;;;;5032514;28;20041;-72
2022/10/07 07:31:09;;;;;;;23.45;5.57;;;10.40;99.90;;;;;;4951465;28;469843;-72
2022/10/07 07:33:41;;;;;;;22.27;4.75;;;10.50;99.90;;;;;;5016198;28;20053;-71
2022/10/07 07:36:15;;;;;;;27.30;5.03;;;10.50;99.90;;;;;;4982760;28;221787;-73
2022/10/07 07:38:43;;;;;;;22.30;4.72;;;10.60;99.90;;;;;;5017820;28;20427;-73
2022/10/07 07:41:10;;;;;;;21.27;4.65;;;10.70;99.90;;;;;;4984613;28;214637;-71
2022/10/07 07:43:36;;;;;;;17.42;4.55;;;10.70;99.90;;;;;;5032924;28;20053;-72
2022/10/07 07:46:03;;;;;;;21.55;4.60;;;10.80;99.90;;;;;;4968442;28;218574;-73
2022/10/07 07:48:32;;;;;;;17.65;4.43;;;10.80;99.90;;;;;;5016089;28;20057;-72
2022/10/07 07:50:59;;;;;;;16.15;4.57;;;10.90;99.90;;;;;;4986492;28;222285;-73
2022/10/07 07:53:28;;;;;;;24.75;4.60;;;11.00;99.90;;;;;;5020131;28;20060;-71
2022/10/07 07:55:56;;;;;;;21.15;4.10;;;11.10;99.90;;;;;;4985535;28;206455;-73
2022/10/07 07:58:23;;;;;;;18.33;4.15;;;11.20;99.90;;;;;;5006292;28;20446;-72
2022/10/07 08:01:01;;;;;;;22.17;4.65;;;11.30;99.90;;;;;;4978008;28;225631;-72
2022/10/07 08:03:27;;;;;;;17.33;3.85;;;11.60;99.90;;;;;;5021926;28;20065;-72
2022/10/07 08:05:54;;;;;;;20.88;4.05;;;11.80;99.90;;;;;;4975178;28;218175;-74
2022/10/07 08:08:20;;;;;;;21.60;3.88;;;11.90;99.90;;;;;;5033879;28;20857;-73
2022/10/07 08:10:46;;;;;;;17.27;3.55;;;12.00;99.90;;;;;;4983481;28;212297;-73
2022/10/07 08:13:12;;;;;;;21.10;3.78;;;12.00;99.90;;;;;;5025196;28;20523;-72
2022/10/07 08:15:39;;;;;;;23.15;4.00;;;12.10;99.90;;;;;;4990057;28;206213;-71
2022/10/07 08:18:06;;;;;;;19.25;4.07;;;12.10;99.90;;;;;;5039911;28;20072;-72
2022/10/07 08:20:34;;;;;;;19.95;3.55;;;12.20;99.90;;;;;;4986417;28;220842;-71
2022/10/07 08:23:01;;;;;;;24.20;3.72;;;12.20;99.90;;;;;;5024390;28;20388;-72
2022/10/07 08:25:29;;;;;;;22.77;4.10;;;12.30;99.90;;;;;;4980432;28;212841;-73
2022/10/07 08:27:56;;;;;;;15.60;3.05;;;12.30;99.90;;;;;;4992968;28;20409;-72
2022/10/07 08:30:23;;;;;;;18.25;3.60;;;12.40;99.90;;;;;;4979316;28;233380;-73
2022/10/07 08:32:52;;;;;;;16.23;3.60;;;12.40;99.90;;;;;;5008438;28;20061;-72
2022/10/07 08:35:18;;;;;;;17.73;3.83;;;12.50;99.90;;;;;;4986187;28;211890;-73
2022/10/07 08:37:44;;;;;;;19.45;3.47;;;12.50;99.90;;;;;;5046460;28;20060;-73
2022/10/07 08:40:16;;;;;;;17.83;3.10;;;12.60;99.90;;;;;;5021716;28;20520;-72
2022/10/07 08:42:43;;;;;;;19.80;3.50;;;12.70;99.90;;;;;;4968218;28;211253;-73
2022/10/07 08:45:19;;;;;;;20.40;3.22;;;12.70;99.90;;;;;;5007404;28;20056;-72
2022/10/07 08:47:47;;;;;;;14.75;3.40;;;12.80;99.90;;;;;;4948058;28;260531;-72
2022/10/07 08:50:16;;;;;;;15.65;3.38;;;12.80;99.90;;;;;;5006180;28;210138;-71
2022/10/07 08:52:53;;;;;;;22.50;3.88;;;12.90;99.90;;;;;;4995956;28;206338;-73
2022/10/07 08:55:46;;;;;;;18.73;4.13;;;13.00;99.90;;;;;;4972046;28;218734;-71
2022/10/07 08:58:47;;;;;;;19.23;3.72;;;13.10;99.90;;;;;;5007669;28;20056;-71
2022/10/07 09:01:52;;;;;;;21.13;3.73;;;13.30;99.90;;;;;;4984489;28;210103;-72
2022/10/07 09:04:18;;;;;;;20.23;3.70;;;13.30;99.90;;;;;;5003407;28;20059;-72
2022/10/07 09:06:55;;;;;;;15.57;3.17;;;13.50;99.90;;;;;;4926450;28;206485;-71
2022/10/07 09:09:31;;;;;;;17.80;3.33;;;13.60;99.90;;;;;;4991222;28;20049;-73
2022/10/07 09:12:00;;;;;;;17.65;3.30;;;13.70;99.90;;;;;;4959737;28;206566;-72
2022/10/07 09:14:38;;;;;;;20.73;3.85;;;13.70;99.90;;;;;;5006356;28;20054;-71
2022/10/07 09:17:14;;;;;;;19.40;3.50;;;13.70;99.90;;;;;;4960915;28;227970;-72
2022/10/07 09:19:48;;;;;;;19.33;3.75;;;13.70;99.90;;;;;;5011340;28;20048;-71
2022/10/07 09:22:29;;;;;;;17.92;3.15;;;13.80;99.90;;;;;;4939141;28;205935;-71
2022/10/07 09:25:11;;;;;;;18.67;3.53;;;13.90;99.90;;;;;;4987975;28;20483;-71
2022/10/07 09:27:37;;;;;;;19.20;3.60;;;13.90;99.90;;;;;;4929471;28;174077;-71
2022/10/07 09:30:05;;;;;;;21.42;4.03;;;13.90;99.90;;;;;;4985584;28;20089;-72
2022/10/07 09:32:34;;;;;;;18.75;3.50;;;13.90;99.90;;;;;;4938117;28;207369;-70
2022/10/07 09:35:04;;;;;;;18.08;3.58;;;14.00;99.90;;;;;;4998384;28;20061;-71
2022/10/07 09:37:34;;;;;;;17.83;3.17;;;14.00;99.90;;;;;;4964647;28;206493;-71
2022/10/07 09:40:24;;;;;;;19.75;3.95;;;14.20;99.90;;;;;;5024228;28;20052;-72
2022/10/07 09:42:52;;;;;;;17.83;3.38;;;14.20;99.90;;;;;;4963383;28;207785;-70
2022/10/07 09:45:24;;;;;;;19.60;3.70;;;14.30;99.90;;;;;;4982060;28;204700;-70
2022/10/07 09:47:57;;;;;;;19.63;3.53;;;14.40;99.90;;;;;;5019300;28;20056;-71
2022/10/07 09:50:38;;;;;;;17.77;3.53;;;14.50;99.90;;;;;;4981474;28;208037;-71
2022/10/07 09:53:27;;;;;;;22.40;3.38;;;14.70;99.90;;;;;;5035528;28;20523;-71
2022/10/07 09:55:54;;;;;;;18.67;3.30;;;14.80;99.90;;;;;;4972071;28;215912;-71
2022/10/07 09:58:28;;;;;;;21.45;3.35;;;15.00;99.90;;;;;;5006154;28;20530;-72
2022/10/07 10:01:00;;;;;;;15.02;3.15;;;15.20;99.90;;;;;;4978708;28;220548;-71
2022/10/07 10:03:44;;;;;;;18.50;3.20;;;15.30;99.90;;;;;;5022639;28;20493;-71
2022/10/07 10:06:11;;;;;;;17.98;3.25;;;15.40;99.90;;;;;;4973360;28;246853;-72
2022/10/07 10:08:41;;;;;;;19.55;3.50;;;15.40;99.90;;;;;;5022717;28;20048;-72
2022/10/07 10:11:19;;;;;;;21.42;3.55;;;15.40;99.90;;;;;;4980575;28;194604;-72
2022/10/07 10:13:48;;;;;;;19.75;3.58;;;15.50;99.90;;;;;;5021920;28;20045;-72
2022/10/07 10:16:33;;;;;;;22.65;3.72;;;15.60;99.90;;;;;;4984578;28;213081;-71
2022/10/07 10:19:02;;;;;;;19.77;3.10;;;15.70;99.90;;;;;;5028605;28;20060;-73
2022/10/07 10:21:34;;;;;;;14.07;3.00;;;15.80;99.90;;;;;;4979378;28;229799;-70
2022/10/07 10:27:12;;;;;;;16.00;3.20;;;15.90;99.90;;;;;;4982270;28;209626;-72
2022/10/07 10:29:48;;;;;;;18.65;2.92;;;16.10;99.90;;;;;;5024726;28;20426;-72
2022/10/07 10:32:52;;;;;;;16.77;2.97;;;16.20;99.90;;;;;;4974863;28;206639;-72
2022/10/07 10:35:27;;;;;;;18.75;3.53;;;16.20;99.90;;;;;;4935022;28;222470;-72
2022/10/07 10:38:22;;;;;;;24.10;3.35;;;16.20;99.90;;;;;;4972954;28;20049;-71
2022/10/07 10:41:02;;;;;;;16.73;2.85;;;16.20;99.90;;;;;;4937514;28;190802;-72
2022/10/07 10:43:50;;;;;;;16.98;3.08;;;16.20;99.90;;;;;;4990684;28;20067;-72
2022/10/07 10:46:16;;;;;;;22.00;3.15;;;16.30;99.90;;;;;;4940017;28;197414;-72
2022/10/07 10:48:52;;;;;;;18.30;2.90;;;16.40;99.90;;;;;;4993272;28;20065;-72
2022/10/07 10:51:31;;;;;;;20.55;3.63;;;16.50;99.90;;;;;;4952891;28;189603;-72
2022/10/07 10:54:06;;;;;;;18.42;3.03;;;17.00;99.90;;;;;;4983408;28;20061;-72
2022/10/07 10:56:52;;;;;;;17.50;3.00;;;17.90;99.90;;;;;;4938065;28;197647;-72
2022/10/07 10:59:30;;;;;;;15.27;2.63;;;18.40;99.90;;;;;;4983542;28;20114;-70
2022/10/07 11:02:18;;;;;;;20.80;3.15;;;18.70;99.90;;;;;;4934377;28;172282;-71
2022/10/07 11:04:49;;;;;;;15.60;3.03;;;18.60;99.90;;;;;;4997628;28;20046;-72
2022/10/07 11:07:18;;;;;;;15.52;2.70;;;18.50;99.90;;;;;;4912920;28;364395;-73
2022/10/07 11:09:50;;;;;;;16.25;2.58;;;18.20;99.90;;;;;;5004656;28;20057;-70
2022/10/07 11:12:30;;;;;;;15.00;2.50;;;17.90;99.90;;;;;;4987850;28;158817;-72
2022/10/07 11:15:09;;;;;;;15.88;2.90;;;17.60;99.90;;;;;;5024198;28;20414;-71
2022/10/07 11:17:38;;;;;;;14.38;2.85;;;17.50;99.90;;;;;;4973475;28;205698;-73
2022/10/07 11:20:33;;;;;;;20.25;2.95;;;17.60;99.90;;;;;;5026828;28;20057;-71
2022/10/07 11:23:23;;;;;;;15.25;2.67;;;17.90;99.90;;;;;;4946376;28;191815;-73
2022/10/07 11:26:00;;;;;;;16.55;2.63;;;18.30;99.90;;;;;;4979738;28;218242;-71
2022/10/07 11:28:29;;;;;;;17.23;2.75;;;19.20;99.90;;;;;;4992562;28;20053;-71
2022/10/07 11:31:08;;;;;;;14.50;2.67;;;19.70;99.90;;;;;;4988398;28;216707;-72
2022/10/07 11:33:45;;;;;;;14.77;2.70;;;20.20;99.90;;;;;;5032026;28;20057;-72
2022/10/07 11:36:20;;;;;;;14.88;2.65;;;20.50;99.90;;;;;;4984275;28;218178;-72
2022/10/07 11:38:51;;;;;;;13.18;2.55;;;20.60;99.90;;;;;;5018883;28;20060;-71
2022/10/07 11:41:20;;;;;;;;;;;20.70;99.90;;;;;;4977267;28;221024;-69
2022/10/07 11:43:55;;;;;;;14.02;2.42;;;20.00;99.20;;;;;;5023978;28;19924;-72
2022/10/07 11:46:59;;;;;;;14.73;2.60;;;20.50;99.90;;;;;;4971299;28;206226;-70
2022/10/07 11:49:38;;;;;;;14.38;2.50;;;20.40;98.90;;;;;;4965201;28;20055;-71
2022/10/07 11:52:07;;;;;;;15.25;2.60;;;20.10;99.80;;;;;;4941307;28;206462;-71
2022/10/07 11:54:49;;;;;;;14.60;2.75;;;20.10;99.90;;;;;;4969537;28;21428;-70
2022/10/07 11:57:23;;;;;;;17.75;2.60;;;20.30;99.90;;;;;;4943142;28;187659;-72
2022/10/07 12:00:07;;;;;;;15.35;2.30;;;20.40;99.50;;;;;;4983557;28;20054;-70
2022/10/07 12:02:42;;;;;;;16.42;2.70;;;19.60;99.50;;;;;;4927946;28;198349;-69
2022/10/07 12:05:34;;;;;;;13.98;2.50;;;19.10;99.90;;;;;;4982563;28;20057;-69
2022/10/07 12:08:35;;;;;;;14.63;2.30;;;18.70;99.90;;;;;;4945892;28;206116;-70
2022/10/07 12:11:13;;;;;;;13.90;2.40;;;18.40;99.90;;;;;;4913945;28;223853;-70
2022/10/07 12:13:51;;;;;;;14.82;2.50;;;18.10;99.90;;;;;;4979324;28;20057;-70
2022/10/07 12:16:22;;;;;;;18.65;2.80;;;18.10;99.90;;;;;;4922131;28;209436;-72
2022/10/07 12:19:07;;;;;;;17.52;2.90;;;18.10;99.90;;;;;;4959834;28;20054;-71
2022/10/07 12:21:56;;;;;;;17.65;2.78;;;18.00;99.90;;;;;;4924018;28;216727;-71
2022/10/07 12:24:22;;;;;;;17.20;2.88;;;18.00;99.90;;;;;;4977996;28;20053;-71
2022/10/07 12:26:49;;;;;;;17.20;2.70;;;17.80;99.90;;;;;;4978217;28;215131;-70
2022/10/07 12:29:32;;;;;;;16.70;2.58;;;17.60;99.90;;;;;;5030782;28;20052;-69
2022/10/07 12:31:58;;;;;;;13.60;2.30;;;17.50;99.90;;;;;;4962143;28;236045;-70
2022/10/07 12:34:38;;;;;;;19.05;2.63;;;17.40;99.90;;;;;;5019056;28;20525;-71
2022/10/07 12:37:52;;;;;;;18.00;2.97;;;17.40;99.90;;;;;;4982507;28;204313;-70
2022/10/07 12:40:26;;;;;;;14.18;2.33;;;17.30;99.90;;;;;;4918020;28;218961;-71
2022/10/07 12:42:59;;;;;;;16.02;2.50;;;17.30;99.90;;;;;;4967865;28;20062;-67
2022/10/07 12:45:27;;;;;;;15.50;2.63;;;17.20;99.90;;;;;;4937046;28;210484;-68
2022/10/07 12:47:57;;;;;;;12.52;2.38;;;17.20;99.90;;;;;;4951607;28;20043;-71
2022/10/07 12:50:25;;;;;;;13.43;2.40;;;17.10;99.90;;;;;;4935121;28;213783;-67
2022/10/07 12:52:55;;;;;;;13.23;2.40;;;17.20;99.90;;;;;;4970327;28;20050;-69
2022/10/07 12:55:35;;;;;;;14.00;2.22;;;17.30;99.90;;;;;;4915306;28;200375;-67
2022/10/07 13:01:40;;;;;;;15.80;2.45;;;17.20;99.90;;;;;;4912804;28;176692;-68
2022/10/07 13:04:32;;;;;;;12.15;2.03;;;17.20;99.90;;;;;;4956787;28;20050;-70
2022/10/07 13:07:10;;;;;;;16.02;2.40;;;17.30;99.90;;;;;;4871827;29;215659;-70
2022/10/07 13:09:48;;;;;;;16.15;2.70;;;17.40;99.90;;;;;;4920745;29;20064;-68
2022/10/07 13:12:34;;;;;;;13.88;1.90;;;17.50;99.90;;;;;;4882029;28;202485;-71
2022/10/07 13:15:40;;;;;;;13.38;2.17;;;17.90;99.90;;;;;;4925235;29;20500;-69
2022/10/07 13:18:27;;;;;;;13.68;2.20;;;17.90;99.90;;;;;;4906761;28;206238;-68
2022/10/07 13:21:01;;;;;;;16.05;2.45;;;18.00;99.90;;;;;;4916614;28;197998;-69